Terminal Aerodrome Forecast
Issued by NWS Louisville, KY

Home | Current Version | Previous Version | Text Only | Print | Product List | Glossary On
Versions: 1 2 3 4 5 6 7 8 9 10 11 12 13 14 15 16 17
000
FTUS43 KLMK 211700
TAFBWG
TAF
KBWG 211723Z 2118/2218 26009KT P6SM SCT025
     FM211900 30011G18KT P6SM SCT030
     FM220000 33005KT P6SM SCT040
     FM220900 02006KT P6SM SKC=

USA.gov is the U.S. government's official web portal to all federal, state and local government web resources and services.